Terminal Aerodrome Forecast
Issued by NWS

Current Version | Previous Version | Text Only | Print | Product List | Glossary Off
Versions: 1 2 3 4 5 6 7 8 9 10 11 12 13 14 15 16

000
FTUS41 KPBZ 210900 AAA
TAFMGW
TAF AMD
KMGW 210903Z 2109/2206 15004KT P6SM BKN050
     FM211000 VRB03KT 4SM BR BKN050
     FM211300 VRB03KT P6SM SCT040=

USA.gov is the U.S. government's official web portal to all federal, state and local government web resources and services.